createdAt,value
2023-05-06T00:00:46.503Z,99912.47
2023-05-06T00:03:40.484Z,99917.69
2023-05-06T00:06:32.115Z,99916.44
2023-05-06T00:09:12.764Z,99918.31
2023-05-06T00:11:54.461Z,99924.91
2023-05-06T00:14:37.698Z,99922.44
2023-05-06T00:17:17.563Z,99915.44
2023-05-06T00:20:10.072Z,99922.13
2023-05-06T00:22:50.951Z,99924.66
2023-05-06T00:25:25.846Z,99925.28
2023-05-06T00:28:20.825Z,99930.13
2023-05-06T00:31:03.120Z,99935.16
2023-05-06T00:33:44.437Z,99934.69
2023-05-06T00:36:26.145Z,99941.38
2023-05-06T00:39:06.281Z,99934.50
2023-05-06T00:41:47.098Z,99933.69
2023-05-06T00:44:36.966Z,99934.13
2023-05-06T00:47:18.151Z,99930.59
2023-05-06T00:49:56.223Z,99935.34
2023-05-06T00:52:41.717Z,99931.81
2023-05-06T00:55:23.372Z,99926.41
2023-05-06T00:58:05.120Z,99927.28
2023-05-06T01:00:54.920Z,99923.09
2023-05-06T01:03:32.652Z,99923.09
2023-05-06T01:06:47.132Z,99927.22
2023-05-06T01:09:41.106Z,99921.88
2023-05-06T01:12:53.201Z,99921.88
2023-05-06T01:15:51.176Z,99921.88
2023-05-06T01:18:37.494Z,99927.28
2023-05-06T01:21:25.501Z,99920.25
2023-05-06T01:24:13.952Z,99911.31
2023-05-06T01:27:04.231Z,99908.56
2023-05-06T01:29:45.503Z,99909.44
2023-05-06T01:32:53.267Z,99914.47
2023-05-06T01:35:33.603Z,99899.50
2023-05-06T01:38:30.573Z,99903.25
2023-05-06T01:41:13.704Z,99898.28
2023-05-06T01:44:08.307Z,99894.13
2023-05-06T01:46:50.382Z,99893.09
2023-05-06T01:49:29.251Z,99888.09
2023-05-06T01:52:07.736Z,99895.19
2023-05-06T01:54:45.981Z,99895.63
2023-05-06T01:57:29.263Z,99894.78
2023-05-06T02:00:10.503Z,99895.03
2023-05-06T02:02:54.878Z,99892.53
2023-05-06T02:05:35.603Z,99891.69
2023-05-06T02:08:19.098Z,99902.50
2023-05-06T02:11:03.117Z,99910.59
2023-05-06T02:13:44.494Z,99903.75
2023-05-06T02:16:22.843Z,99900.66
2023-05-06T02:19:07.934Z,99905.41
2023-05-06T02:21:46.936Z,99902.09
2023-05-06T02:24:33.013Z,99902.09
2023-05-06T02:27:19.057Z,99910.00
2023-05-06T02:30:06.587Z,99905.41
2023-05-06T02:32:47.856Z,99910.00
2023-05-06T02:35:28.640Z,99912.91
2023-05-06T02:38:18.477Z,99908.53
2023-05-06T02:41:17.040Z,99907.50
2023-05-06T02:44:06.381Z,99913.53
2023-05-06T02:46:44.973Z,99915.81
2023-05-06T02:49:20.757Z,99911.22
2023-05-06T02:52:08.793Z,99918.94
2023-05-06T02:54:54.054Z,99906.28
2023-05-06T02:57:37.256Z,99916.66
2023-05-06T03:00:18.074Z,99919.34
2023-05-06T03:02:56.407Z,99920.81
2023-05-06T03:05:51.029Z,99929.53
2023-05-06T03:08:37.149Z,99926.19
2023-05-06T03:11:20.095Z,99918.31
2023-05-06T03:14:06.644Z,99922.44
2023-05-06T03:16:47.751Z,99918.09
2023-05-06T03:19:29.577Z,99918.09
2023-05-06T03:22:05.276Z,99915.00
2023-05-06T03:24:52.464Z,99911.06
2023-05-06T03:27:38.525Z,99903.16
2023-05-06T03:30:28.199Z,99901.50
2023-05-06T03:33:18.111Z,99895.69
2023-05-06T03:35:58.948Z,99898.19
2023-05-06T03:38:42.378Z,99886.78
2023-05-06T03:41:26.835Z,99878.47
2023-05-06T03:44:04.950Z,99884.28
2023-05-06T03:46:51.415Z,99873.69
2023-05-06T03:49:32.244Z,99873.06
2023-05-06T03:52:27.128Z,99883.47
2023-05-06T03:55:09.905Z,99880.72
2023-05-06T03:57:59.052Z,99884.84
2023-05-06T04:00:44.823Z,99887.94
2023-05-06T04:03:31.515Z,99894.41
2023-05-06T04:06:13.379Z,99893.97
2023-05-06T04:08:54.628Z,99889.59
2023-05-06T04:11:40.786Z,99893.31
2023-05-06T04:14:27.543Z,99898.47
2023-05-06T04:17:14.785Z,99897.59
2023-05-06T04:19:58.118Z,99909.56
2023-05-06T04:22:41.397Z,99908.53
2023-05-06T04:25:28.010Z,99911.78
2023-05-06T04:28:08.390Z,99923.81
2023-05-06T04:30:49.320Z,99916.06
2023-05-06T04:33:32.885Z,99928.09
2023-05-06T04:36:16.267Z,99943.28
2023-05-06T04:39:17.642Z,99939.03
2023-05-06T04:42:12.858Z,99941.81
2023-05-06T04:44:57.017Z,99943.88
2023-05-06T04:47:50.238Z,99948.28
2023-05-06T04:50:49.735Z,99942.38
2023-05-06T04:53:43.149Z,99937.91
2023-05-06T04:56:21.195Z,99943.25
2023-05-06T04:59:07.757Z,99936.91
2023-05-06T05:01:49.037Z,99939.41
2023-05-06T05:04:27.643Z,99936.66
2023-05-06T05:07:02.766Z,99945.38
2023-05-06T05:09:39.928Z,99944.47
2023-05-06T05:12:19.922Z,99949.72
2023-05-06T05:15:07.031Z,99950.19
2023-05-06T05:17:45.691Z,99948.81
2023-05-06T05:20:29.659Z,99957.91
2023-05-06T05:23:18.996Z,99962.47
2023-05-06T05:26:07.892Z,99963.63
2023-05-06T05:28:59.066Z,99966.34
2023-05-06T05:31:41.172Z,99966.13
2023-05-06T05:34:24.859Z,99959.22
2023-05-06T05:37:14.492Z,99961.84
2023-05-06T05:40:04.336Z,99970.28
2023-05-06T05:42:51.299Z,99957.25
2023-05-06T05:45:48.483Z,99960.50
2023-05-06T05:48:24.142Z,99956.75
2023-05-06T05:51:29.149Z,99948.47
2023-05-06T05:54:15.988Z,99946.88
2023-05-06T05:57:04.317Z,99950.44
2023-05-06T05:59:51.024Z,99943.88
2023-05-06T06:02:38.068Z,99954.09
2023-05-06T06:05:18.220Z,99954.72
2023-05-06T06:08:01.137Z,99954.72
2023-05-06T06:10:53.409Z,99956.28
2023-05-06T06:13:47.804Z,99949.25
2023-05-06T06:16:25.879Z,99954.56
2023-05-06T06:19:15.393Z,99951.53
2023-05-06T06:21:56.205Z,99946.81
2023-05-06T06:24:46.192Z,99951.53
2023-05-06T06:27:43.897Z,99954.06
2023-05-06T06:30:19.630Z,99952.97
2023-05-06T06:33:02.076Z,99952.38
2023-05-06T06:35:46.017Z,99951.22
2023-05-06T06:38:35.022Z,99951.94
2023-05-06T06:41:11.129Z,99952.22
2023-05-06T06:43:54.156Z,99957.63
2023-05-06T06:46:45.984Z,99955.16
2023-05-06T06:49:41.317Z,99951.53
2023-05-06T06:52:27.443Z,99941.31
2023-05-06T06:55:10.708Z,99940.81
2023-05-06T06:58:03.606Z,99940.38
2023-05-06T07:00:47.649Z,99940.84
2023-05-06T07:03:31.201Z,99938.88
2023-05-06T07:06:05.230Z,99934.25
2023-05-06T07:08:40.227Z,99938.75
2023-05-06T07:11:27.123Z,99938.69
2023-05-06T07:14:02.444Z,99936.38
2023-05-06T07:16:39.560Z,99935.94
2023-05-06T07:19:20.208Z,99946.13
2023-05-06T07:22:08.585Z,99952.72
2023-05-06T07:24:46.841Z,99944.75
2023-05-06T07:27:24.294Z,99945.44
2023-05-06T07:30:23.401Z,99948.50
2023-05-06T07:33:09.848Z,99944.44
2023-05-06T07:35:50.799Z,99939.53
2023-05-06T07:38:39.526Z,99944.78
2023-05-06T07:41:33.691Z,99948.84
2023-05-06T07:44:17.451Z,99942.69
2023-05-06T07:47:10.925Z,99948.59
2023-05-06T07:49:52.154Z,99946.00
2023-05-06T07:52:32.858Z,99940.44
2023-05-06T07:55:13.760Z,99940.28
2023-05-06T07:58:13.372Z,99932.22
2023-05-06T08:00:54.126Z,99934.28
2023-05-06T08:03:44.242Z,99937.03
2023-05-06T08:06:28.105Z,99936.50
2023-05-06T08:09:22.281Z,99938.88
2023-05-06T08:12:06.165Z,99941.22
2023-05-06T08:14:38.944Z,99949.50
2023-05-06T08:17:24.909Z,99952.25
2023-05-06T08:20:08.673Z,99948.38
2023-05-06T08:22:55.440Z,99954.22
2023-05-06T08:25:39.055Z,99950.84
2023-05-06T08:28:20.432Z,99949.38
2023-05-06T08:31:10.564Z,99946.91
2023-05-06T08:33:54.823Z,99950.06
2023-05-06T08:36:38.069Z,99947.84
2023-05-06T08:39:28.503Z,99945.09
2023-05-06T08:42:16.119Z,99945.94
2023-05-06T08:44:52.185Z,99941.84
2023-05-06T08:47:39.587Z,99942.25
2023-05-06T08:50:27.164Z,99943.25
2023-05-06T08:53:09.087Z,99935.50
2023-05-06T08:55:53.458Z,99939.50
2023-05-06T08:58:36.073Z,99935.53
2023-05-06T09:01:24.729Z,99939.03
2023-05-06T09:04:05.468Z,99939.88
2023-05-06T09:06:43.751Z,99931.19
2023-05-06T09:09:19.612Z,99927.09
2023-05-06T09:12:17.002Z,99923.38
2023-05-06T09:14:59.682Z,99925.06
2023-05-06T09:17:52.068Z,99922.44
2023-05-06T09:20:38.865Z,99917.34
2023-05-06T09:23:27.713Z,99917.16
2023-05-06T09:26:11.970Z,99914.72
2023-05-06T09:28:57.658Z,99910.50
2023-05-06T09:31:30.844Z,99910.94
2023-05-06T09:34:05.071Z,99908.44
2023-05-06T09:36:45.921Z,99915.72
2023-05-06T09:39:24.661Z,99909.53
2023-05-06T09:42:14.151Z,99903.03
2023-05-06T09:45:05.696Z,99906.66
2023-05-06T09:47:53.153Z,99906.41
2023-05-06T09:50:28.277Z,99901.41
2023-05-06T09:53:14.499Z,99899.69
2023-05-06T09:56:04.434Z,99892.69
2023-05-06T09:58:51.572Z,99890.84
2023-05-06T10:01:37.563Z,99894.47
2023-05-06T10:04:26.812Z,99888.72
2023-05-06T10:07:12.924Z,99882.16
2023-05-06T10:10:01.172Z,99881.72
2023-05-06T10:12:44.863Z,99876.16
2023-05-06T10:15:33.982Z,99872.81
2023-05-06T10:18:19.817Z,99868.09
2023-05-06T10:20:58.641Z,99860.13
2023-05-06T10:24:17.502Z,99855.34
2023-05-06T10:27:04.721Z,99854.25
2023-05-06T10:30:03.984Z,99851.66
2023-05-06T10:32:52.924Z,99847.09
2023-05-06T10:35:57.427Z,99846.94
2023-05-06T10:38:55.081Z,99832.06
2023-05-06T10:41:29.424Z,99841.16
2023-05-06T10:44:07.083Z,99843.91
2023-05-06T10:47:06.007Z,99834.41
2023-05-06T10:49:50.091Z,99826.81
2023-05-06T10:52:33.577Z,99837.09
2023-05-06T10:55:39.118Z,99824.75
2023-05-06T10:58:38.962Z,99818.22
2023-05-06T11:01:25.295Z,99813.59
2023-05-06T11:04:20.103Z,99817.72
2023-05-06T11:07:13.553Z,99804.97
2023-05-06T11:10:10.853Z,99807.13
2023-05-06T11:13:02.200Z,99812.22
2023-05-06T11:15:46.033Z,99804.69
2023-05-06T11:18:53.685Z,99804.03
2023-05-06T11:21:43.873Z,99801.75
2023-05-06T11:24:37.140Z,99798.34
2023-05-06T11:27:27.788Z,99802.38
2023-05-06T11:30:08.646Z,99791.41
2023-05-06T11:32:58.985Z,99798.22
2023-05-06T11:35:54.080Z,99796.59
2023-05-06T11:38:52.547Z,99797.53
2023-05-06T11:41:39.724Z,99792.38
2023-05-06T11:44:26.181Z,99799.16
2023-05-06T11:47:20.950Z,99794.72
2023-05-06T11:50:07.508Z,99792.63
2023-05-06T11:52:54.452Z,99800.94
2023-05-06T11:55:50.315Z,99804.28
2023-05-06T11:58:40.752Z,99806.25
2023-05-06T12:01:28.110Z,99802.28
2023-05-06T12:04:17.391Z,99802.47
2023-05-06T12:07:07.921Z,99803.03
2023-05-06T12:09:50.130Z,99804.38
2023-05-06T12:12:35.149Z,99803.47
2023-05-06T12:15:13.785Z,99804.28
2023-05-06T12:17:52.459Z,99800.88
2023-05-06T12:20:35.317Z,99800.06
2023-05-06T12:23:25.899Z,99799.94
2023-05-06T12:26:12.780Z,99797.00
2023-05-06T12:29:09.112Z,99798.19
2023-05-06T12:31:50.127Z,99799.13
2023-05-06T12:34:50.873Z,99795.31
2023-05-06T12:37:59.800Z,99793.78
2023-05-06T12:40:35.294Z,99798.78
2023-05-06T12:43:16.497Z,99790.81
2023-05-06T12:46:12.540Z,99789.53
2023-05-06T12:49:09.012Z,99789.22
2023-05-06T12:51:49.470Z,99795.66
2023-05-06T12:54:42.172Z,99788.06
2023-05-06T12:57:29.340Z,99786.75
2023-05-06T13:00:21.264Z,99790.75
2023-05-06T13:03:14.233Z,99787.25
2023-05-06T13:05:54.195Z,99794.47
2023-05-06T13:08:39.522Z,99789.25
2023-05-06T13:11:28.595Z,99780.44
2023-05-06T13:14:12.130Z,99794.16
2023-05-06T13:17:00.451Z,99792.38
2023-05-06T13:19:48.888Z,99798.63
2023-05-06T13:22:53.318Z,99800.97
2023-05-06T13:25:42.023Z,99805.22
2023-05-06T13:28:32.150Z,99801.13
2023-05-06T13:31:18.427Z,99794.81
2023-05-06T13:34:07.321Z,99802.09
2023-05-06T13:36:45.489Z,99804.06
2023-05-06T13:39:34.893Z,99805.09
2023-05-06T13:42:30.464Z,99816.44
2023-05-06T13:45:20.498Z,99812.38
2023-05-06T13:48:08.240Z,99811.66
2023-05-06T13:50:52.574Z,99807.72
2023-05-06T13:53:39.633Z,99809.94
2023-05-06T13:56:29.971Z,99811.91
2023-05-06T13:59:12.924Z,99805.47
2023-05-06T14:01:56.805Z,99806.03
2023-05-06T14:04:48.868Z,99802.72
2023-05-06T14:07:37.992Z,99803.28
2023-05-06T14:10:31.801Z,99808.81
2023-05-06T14:13:17.975Z,99803.34
2023-05-06T14:16:13.171Z,99800.06
2023-05-06T14:18:52.150Z,99804.44
2023-05-06T14:21:41.439Z,99800.09
2023-05-06T14:24:23.116Z,99807.44
2023-05-06T14:27:00.783Z,99809.34
2023-05-06T14:29:53.060Z,99810.69
2023-05-06T14:32:37.657Z,99806.56
2023-05-06T14:35:28.029Z,99803.19
2023-05-06T14:38:09.555Z,99805.09
2023-05-06T14:40:46.705Z,99807.94
2023-05-06T14:43:27.768Z,99806.25
2023-05-06T14:46:13.374Z,99808.41
2023-05-06T14:48:59.072Z,99791.38
2023-05-06T14:51:32.534Z,99786.41
2023-05-06T14:54:10.429Z,99786.88
2023-05-06T14:56:53.688Z,99777.75
2023-05-06T14:59:58.152Z,99773.69
2023-05-06T15:02:35.688Z,99775.31
2023-05-06T15:05:12.120Z,99770.47
2023-05-06T15:07:55.841Z,99770.16
2023-05-06T15:10:45.747Z,99780.00
2023-05-06T15:13:32.042Z,99777.44
2023-05-06T15:16:10.558Z,99772.06
2023-05-06T15:18:48.986Z,99761.41
2023-05-06T15:21:29.545Z,99759.50
2023-05-06T15:24:13.653Z,99751.28
2023-05-06T15:26:46.017Z,99748.56
2023-05-06T15:29:30.517Z,99750.22
2023-05-06T15:32:05.286Z,99745.81
2023-05-06T15:34:47.617Z,99743.06
2023-05-06T15:37:25.335Z,99743.28
2023-05-06T15:40:17.519Z,99748.72
2023-05-06T15:42:58.223Z,99762.41
2023-05-06T15:45:44.881Z,99755.44
2023-05-06T15:48:29.304Z,99755.25
2023-05-06T15:51:09.666Z,99750.09
2023-05-06T15:53:57.367Z,99758.03
2023-05-06T15:56:46.935Z,99759.22
2023-05-06T15:59:27.699Z,99742.72
2023-05-06T16:05:13.052Z,99754.19
2023-05-06T16:07:59.966Z,99753.19
2023-05-06T16:10:47.397Z,99750.94
2023-05-06T16:13:37.528Z,99753.16
2023-05-06T16:16:18.652Z,99753.91
2023-05-06T16:19:08.039Z,99754.28
2023-05-06T16:21:51.126Z,99754.44
2023-05-06T16:24:37.869Z,99753.06
2023-05-06T16:27:19.770Z,99756.44
2023-05-06T16:30:05.233Z,99761.94
2023-05-06T16:32:51.777Z,99764.25
2023-05-06T16:35:30.388Z,99760.50
2023-05-06T16:38:19.540Z,99767.38
2023-05-06T16:41:00.855Z,99763.91
2023-05-06T16:43:39.097Z,99766.44
2023-05-06T16:46:24.830Z,99764.97
2023-05-06T16:49:13.949Z,99763.84
2023-05-06T16:52:01.105Z,99766.44
2023-05-06T16:54:42.934Z,99770.44
2023-05-06T16:57:20.611Z,99757.88
2023-05-06T17:00:00.505Z,99761.09
2023-05-06T17:02:40.890Z,99753.00
2023-05-06T17:05:22.344Z,99753.34
2023-05-06T17:07:54.506Z,99752.88
2023-05-06T17:10:43.670Z,99750.44
2023-05-06T17:13:24.068Z,99747.75
2023-05-06T17:16:07.101Z,99752.44
2023-05-06T17:18:42.514Z,99744.72
2023-05-06T17:21:25.039Z,99740.09
2023-05-06T17:24:04.985Z,99744.19
2023-05-06T17:26:41.069Z,99747.97
2023-05-06T17:29:22.346Z,99739.75
2023-05-06T17:32:08.691Z,99741.97
2023-05-06T17:34:49.231Z,99745.75
2023-05-06T17:37:31.669Z,99735.09
2023-05-06T17:40:18.248Z,99741.34
2023-05-06T17:43:04.217Z,99739.63
2023-05-06T17:45:40.965Z,99733.31
2023-05-06T17:51:56.201Z,99730.81
2023-05-06T17:54:57.505Z,99731.88
2023-05-06T18:01:41.952Z,99732.94
2023-05-06T18:07:44.750Z,99740.22
2023-05-06T18:10:45.057Z,99739.44
2023-05-06T18:13:35.123Z,99747.91
2023-05-06T18:16:43.560Z,99745.97
2023-05-06T18:23:05.711Z,99749.41
2023-05-06T18:25:44.394Z,99751.59
2023-05-06T18:28:46.978Z,99757.88
2023-05-06T18:44:26.234Z,99767.56
2023-05-06T18:47:14.617Z,99774.97
2023-05-06T18:53:14.419Z,99760.25
2023-05-06T18:55:50.954Z,99762.72
2023-05-06T18:58:44.072Z,99759.94
2023-05-06T19:01:26.293Z,99760.44
2023-05-06T19:04:01.613Z,99761.78
2023-05-06T19:06:46.148Z,99760.41
2023-05-06T19:09:27.284Z,99764.22
2023-05-06T19:12:12.172Z,99773.44
2023-05-06T19:14:52.634Z,99784.09
2023-05-06T19:17:36.010Z,99787.63
2023-05-06T19:20:14.689Z,99778.28
2023-05-06T19:23:16.204Z,99784.84
2023-05-06T19:25:46.107Z,99779.34
2023-05-06T19:28:29.337Z,99788.16
2023-05-06T19:31:34.912Z,99787.91
2023-05-06T19:34:18.754Z,99793.56
2023-05-06T19:37:10.176Z,99799.31
2023-05-06T19:39:56.320Z,99802.91
2023-05-06T19:42:40.679Z,99796.06
2023-05-06T19:45:17.522Z,99796.91
2023-05-06T19:47:56.612Z,99794.25
2023-05-06T19:50:36.268Z,99796.31
2023-05-06T19:53:20.184Z,99803.88
2023-05-06T19:56:14.946Z,99798.38
2023-05-06T19:59:04.148Z,99805.72
2023-05-06T20:01:49.224Z,99802.75
2023-05-06T20:04:35.937Z,99806.25
2023-05-06T20:07:14.569Z,99808.13
2023-05-06T20:10:00.309Z,99815.16
2023-05-06T20:12:42.025Z,99809.72
2023-05-06T20:15:25.266Z,99810.22
2023-05-06T20:18:08.999Z,99815.63
2023-05-06T20:20:56.452Z,99817.03
2023-05-06T20:23:42.558Z,99815.06
2023-05-06T20:26:26.110Z,99823.00
2023-05-06T20:29:01.699Z,99822.16
2023-05-06T20:31:46.170Z,99809.03
2023-05-06T20:34:30.112Z,99808.97
2023-05-06T20:37:10.495Z,99805.31
2023-05-06T20:39:49.232Z,99811.59
2023-05-06T20:42:27.825Z,99812.16
2023-05-06T20:45:13.001Z,99814.06
2023-05-06T20:47:58.369Z,99803.88
2023-05-06T20:50:33.004Z,99797.72
2023-05-06T20:53:20.112Z,99798.94
2023-05-06T20:55:57.096Z,99797.03
2023-05-06T20:58:33.183Z,99805.66
2023-05-06T21:01:18.581Z,99793.09
2023-05-06T21:03:59.200Z,99794.75
2023-05-06T21:06:41.153Z,99792.97
2023-05-06T21:09:25.862Z,99793.44
2023-05-06T21:12:09.170Z,99791.78
2023-05-06T21:14:59.084Z,99794.81
2023-05-06T21:17:38.570Z,99790.81
2023-05-06T21:20:23.019Z,99796.59
2023-05-06T21:23:06.783Z,99789.38
2023-05-06T21:26:02.829Z,99788.31
2023-05-06T21:28:51.334Z,99783.28
2023-05-06T21:31:41.322Z,99778.47
2023-05-06T21:34:22.091Z,99766.78
2023-05-06T21:37:05.390Z,99766.25
2023-05-06T21:39:40.890Z,99765.13
2023-05-06T21:42:21.571Z,99757.41
2023-05-06T21:45:00.424Z,99756.13
2023-05-06T21:47:41.038Z,99767.19
2023-05-06T21:50:21.613Z,99763.28
2023-05-06T21:53:12.335Z,99768.84
2023-05-06T21:55:56.134Z,99771.00
2023-05-06T21:58:33.915Z,99772.63
2023-05-06T22:01:26.136Z,99764.44
2023-05-06T22:04:13.139Z,99769.56
2023-05-06T22:06:57.125Z,99766.59
2023-05-06T22:09:40.211Z,99771.13
2023-05-06T22:12:18.996Z,99774.34
2023-05-06T22:15:05.085Z,99770.91
2023-05-06T22:17:42.261Z,99768.84
2023-05-06T22:20:22.546Z,99767.44
2023-05-06T22:23:10.888Z,99764.00
2023-05-06T22:25:52.591Z,99769.66
2023-05-06T22:28:33.186Z,99773.88
2023-05-06T22:31:14.624Z,99777.63
2023-05-06T22:34:06.333Z,99769.38
2023-05-06T22:36:44.643Z,99765.94
2023-05-06T22:39:33.645Z,99768.06
2023-05-06T22:42:17.197Z,99776.59
2023-05-06T22:45:08.908Z,99771.97
2023-05-06T22:47:56.177Z,99783.06
2023-05-06T22:50:39.005Z,99783.81
2023-05-06T22:53:24.998Z,99784.56
2023-05-06T22:56:13.272Z,99788.69
2023-05-06T22:58:59.171Z,99782.97
2023-05-06T23:01:51.576Z,99790.00
2023-05-06T23:04:31.840Z,99789.88
2023-05-06T23:07:19.083Z,99795.31
2023-05-06T23:09:51.174Z,99793.66
2023-05-06T23:12:40.379Z,99798.38
2023-05-06T23:15:23.106Z,99791.41
2023-05-06T23:18:06.984Z,99809.47
2023-05-06T23:20:53.052Z,99799.09
2023-05-06T23:23:34.271Z,99797.88
2023-05-06T23:26:17.481Z,99791.72
2023-05-06T23:29:05.105Z,99792.81
2023-05-06T23:31:47.669Z,99787.81
2023-05-06T23:34:28.521Z,99786.47
2023-05-06T23:37:20.395Z,99781.13
2023-05-06T23:39:58.709Z,99789.19
2023-05-06T23:42:40.106Z,99788.13
2023-05-06T23:45:15.061Z,99777.22
2023-05-06T23:48:06.340Z,99779.84
2023-05-06T23:50:44.643Z,99782.03
2023-05-06T23:53:28.905Z,99778.56
2023-05-06T23:56:12.674Z,99780.22
2023-05-06T23:58:55.771Z,99778.91
